Welton, Iowa
Current Conditions -  °F | °C
As of 9:35 PM on Friday 28 Nov 2014 (Local Time) from KCWI Reporting Station
Clear Clear  
Wind Chill: 21°   Ceiling: Unl
Heat Index: 28°   Visibility: 6mi
Dew Point: 27°   Wind: 7mph
Humidity: 93%   Direction: 110°ESE
Pressure: 29.85"   Gusts: NA
Location:  41.91°N, 90.6°W
Report Text: KCWI 290335Z AUTO 11006KT 6SM CLR M02/M03 A2985 RMK AO1
Loading
Personal Weather Stations






























Interactive Weather Map New forecast layout! Learn more

10-Day Weather Forecast

Advertisements
Track Severe Weather on mobile